Latest Coastal Weather Observations for Geelong Racecourse

IDV60701

Issued at 10:01 am EDT Wednesday 28 January 2015 (issued every 10 minutes, with the page automatically refreshed every 10 minutes)

About coastal observations | Map of coastal stations | Coastal observations for VIC | Marine services | Other Formats
Station Details ID: 087184 Name: GEELONG RACECOURSE Lat: -38.17 Lon: 144.38 Height: 12.9 m
Data from the previous 72 hours. | See also: Recent months at Geelong Racecourse
Date/Time
EDT
Temp

°C
Wind Pressure Rain
since 9am
mm
Weather Cloud Vis
km
Sea
Height
m
Swell
Dir
 
Speed
knots
Gust
knots
hPa Trend Height
m
Period
s
Dir
28/10:00am 19.5 SE 8 13 1019.5 - 0.0 - - - - - - -
28/09:30am 18.6 SE 10 15 1019.5 - 0.0 - - - - - - -
28/09:00am 18.5 ESE 8 13 1019.2 - 0.0 - - - - - - -
28/08:30am 18.1 SE 7 11 1018.9 - 0.0 - - - - - - -
28/08:00am 17.1 SE 6 8 1018.4 - 0.0 - - - - - - -
28/07:30am 15.0 SSE 2 5 1018.0 - 0.0 - - - - - - -
28/07:00am 11.4 S 1 1 1018.0 - 0.0 - - - - - - -
28/06:30am 11.0 S 1 2 1017.8 - 0.0 - - - - - - -
28/06:00am 11.2 S 1 1 1017.5 - 0.0 - - - - - - -
28/05:30am 12.0 SSE 2 3 1017.2 - 0.0 - - - - - - -
28/05:00am 12.6 S 2 3 1017.2 - 0.0 - - - - - - -
28/04:30am 12.8 SSE 3 5 1017.1 - 0.0 - - - - - - -
28/04:00am 13.1 SSE 3 4 1017.0 - 0.0 - - - - - - -
28/03:30am 13.4 S 3 4 1017.2 - 0.0 - - - - - - -
28/03:00am 13.7 S 4 5 1017.4 - 0.0 - - - - - - -
28/02:30am 14.4 SSE 6 9 1017.6 - 0.0 - - - - - - -
28/02:00am 15.4 SSE 8 13 1017.8 - 0.0 - - - - - - -
28/01:30am 15.5 SSE 7 11 1018.2 - 0.0 - - - - - - -
28/01:00am 15.3 SSE 9 14 1018.5 - 0.0 - - - - - - -
28/12:30am 15.5 SSE 8 13 1018.6 - 0.0 - - - - - - -
28/12:00am 15.2 SSE 7 12 1018.6 - 0.0 - - - - - - -
 
Date/Time
EDT
Temp

°C
Wind Pressure Rain
since 9am
mm
Weather Cloud Vis
km
Sea
Height
m
Swell
Dir
 
Speed
knots
Gust
knots
hPa Trend Height
m
Period
s
Dir
27/11:30pm 14.7 SSE 6 10 1018.8 - 0.0 - - - - - - -
27/11:00pm 15.1 SSE 9 14 1018.9 - 0.0 - - - - - - -
27/10:30pm 15.3 SSE 10 14 1018.9 - 0.0 - - - - - - -
27/10:00pm 15.2 S 8 12 1018.7 - 0.0 - - - - - - -
27/09:30pm 15.2 S 10 13 1018.6 - 0.0 - - - - - - -
27/09:00pm 15.0 S 8 12 1018.4 - 0.0 - - - - - - -
27/08:30pm 15.4 S 9 13 1018.4 - 0.0 - - - - - - -
27/08:00pm 16.0 SSE 10 15 1018.1 - 0.0 - - - - - - -
27/07:30pm 16.4 SSE 10 14 1018.0 - 0.0 - - - - - - -
27/07:00pm 17.1 S 11 15 1017.6 - 0.0 - - - - - - -
27/06:30pm 16.9 S 12 18 1017.5 - 0.0 - - - - - - -
27/06:00pm 17.9 SSE 14 20 1017.4 - 0.0 - - - - - - -
27/05:30pm 17.1 SSE 14 19 1017.5 - 0.0 - - - - - - -
27/05:00pm 17.4 S 13 19 1017.7 - 0.0 - - - - - - -
27/04:30pm 18.1 S 14 21 1017.6 - 0.0 - - - - - - -
27/04:00pm 17.7 SSE 13 20 1017.6 - 0.0 - - - - - - -
27/03:30pm 18.1 SSE 13 19 1017.7 - 0.0 - - - - - - -
27/03:00pm 18.2 SSE 14 19 1017.7 - 0.0 - - - - - - -
27/02:30pm 18.4 SSE 12 18 1017.8 - 0.0 - - - - - - -
27/02:00pm 18.3 S 12 19 1017.8 - 0.0 - - - - - - -
27/01:30pm 18.6 SSE 11 17 1017.8 - 0.0 - - - - - - -
27/01:00pm 18.8 S 13 18 1017.9 - 0.0 - - - - - - -
27/12:30pm 19.4 SSE 11 16 1018.0 - 0.0 - - - - - - -
27/12:00pm 19.2 SSE 10 16 1018.1 - 0.0 - - - - - - -
27/11:30am 18.4 SSE 11 17 1018.4 - 0.0 - - - - - - -
27/11:00am 18.3 SSE 12 17 1018.2 - 0.0 - - - - - - -
27/10:30am 19.2 SSE 11 19 1018.2 - 0.0 - - - - - - -
27/10:00am 18.4 SSE 10 17 1018.1 - 0.0 - - - - - - -
27/09:30am 17.5 SSE 11 15 1018.2 - 0.0 - - - - - - -
27/09:00am 16.9 SSE 9 14 1018.0 - 0.0 - - - - - - -
27/08:30am 16.9 SSE 8 12 1017.6 - 0.0 - - - - - - -
27/08:00am 15.9 SE 6 9 1017.4 - 0.0 - - - - - - -
27/07:30am 13.9 SSE 6 8 1017.2 - 0.0 - - - - - - -
27/07:00am 13.5 SSE 6 8 1017.0 - 0.0 - - - - - - -
27/06:30am 12.9 SSE 5 7 1016.9 - 0.0 - - - - - - -
27/06:00am 11.4 SSE 3 4 1016.9 - 0.0 - - - - - - -
27/05:30am 9.8 SSW 1 2 1016.8 - 0.0 - - - - - - -
27/05:00am 9.4 SSW 2 2 1016.8 - 0.0 - - - - - - -
27/04:30am 9.7 S 2 3 1016.7 - 0.0 - - - - - - -
27/04:00am 10.2 S 2 2 1016.8 - 0.0 - - - - - - -
27/03:30am 9.5 S 2 3 1016.9 - 0.0 - - - - - - -
27/03:00am 10.4 S 2 4 1017.1 - 0.0 - - - - - - -
27/02:30am 11.3 SSE 2 4 1017.2 - 0.0 - - - - - - -
27/02:00am 12.7 SE 3 5 1017.4 - 0.0 - - - - - - -
27/01:30am 12.6 SSE 3 6 1017.7 - 0.0 - - - - - - -
27/01:00am 12.6 SSE 3 4 1017.8 - 0.0 - - - - - - -
27/12:30am 12.7 SSE 3 5 1018.0 - 0.0 - - - - - - -
27/12:00am 12.5 SSE 3 4 1018.1 - 0.0 - - - - - - -
 
Date/Time
EDT
Temp

°C
Wind Pressure Rain
since 9am
mm
Weather Cloud Vis
km
Sea
Height
m
Swell
Dir
 
Speed
knots
Gust
knots
hPa Trend Height
m
Period
s
Dir
26/11:30pm 12.6 SSE 3 4 1018.2 - 0.0 - - - - - - -
26/11:00pm 12.7 SSE 3 4 1018.3 - 0.0 - - - - - - -
26/10:30pm 12.9 S 3 5 1018.4 - 0.0 - - - - - - -
26/10:00pm 13.6 S 5 6 1018.2 - 0.0 - - - - - - -
26/09:30pm 13.9 SSE 5 7 1018.0 - 0.0 - - - - - - -
26/09:00pm 14.4 S 5 8 1017.9 - 0.0 - - - - - - -
26/08:30pm 15.2 S 9 13 1017.6 - 0.0 - - - - - - -
26/08:00pm 15.9 S 10 14 1017.4 - 0.0 - - - - - - -
26/07:30pm 16.6 S 11 16 1017.2 - 0.0 - - - - - - -
26/07:00pm 17.4 SSE 10 16 1016.8 - 0.0 - - - - - - -
26/06:30pm 17.3 SSE 12 17 1016.8 - 0.0 - - - - - - -
26/06:00pm 18.2 S 12 17 1016.7 - 0.0 - - - - - - -
26/05:30pm 18.0 S 12 19 1016.7 - 0.0 - - - - - - -
26/05:00pm 18.2 S 13 20 1016.8 - 0.0 - - - - - - -
26/04:30pm 18.8 SSE 13 18 1017.0 - 0.0 - - - - - - -
26/04:00pm 18.0 SSE 11 17 1017.0 - 0.0 - - - - - - -
26/03:30pm 19.1 SSE 13 19 1016.9 - 0.0 - - - - - - -
26/03:00pm 18.6 S 12 18 1016.8 - 0.0 - - - - - - -
26/02:30pm 17.9 SSE 11 17 1016.9 - 0.0 - - - - - - -
26/02:00pm 18.1 SSE 11 16 1017.0 - 0.0 - - - - - - -
26/01:30pm 18.9 SSE 9 15 1016.9 - 0.0 - - - - - - -
26/01:00pm 17.8 S 10 16 1017.1 - 0.0 - - - - - - -
26/12:30pm 18.2 S 10 15 1017.3 - 0.0 - - - - - - -
26/12:00pm 17.7 S 11 14 1017.3 - 0.0 - - - - - - -
26/11:30am 17.6 SSW 10 13 1017.3 - 0.0 - - - - - - -
26/11:00am 17.1 SSW 8 13 1017.4 - 0.0 - - - - - - -
26/10:30am 16.0 WSW 9 11 1017.3 - 0.0 - - - - - - -
26/10:00am 16.4 WSW 9 11 1017.2 - 0.0 - - - - - - -
26/09:30am 15.7 W 7 12 1017.2 - 0.0 - - - - - - -
26/09:00am 13.2 WNW 5 7 1017.1 - 0.0 - - - - - - -
26/08:30am 12.1 WNW 4 6 1016.8 - 0.0 - - - - - - -
26/08:00am 11.3 WNW 3 5 1016.6 - 0.0 - - - - - - -
26/07:30am 10.6 WNW 4 6 1016.1 - 0.0 - - - - - - -
26/07:00am 10.0 WNW 4 6 1015.7 - 0.0 - - - - - - -
26/06:30am 9.1 WNW 4 5 1015.5 - 0.0 - - - - - - -
26/06:00am 8.7 WNW 3 4 1015.2 - 0.0 - - - - - - -
26/05:30am 8.6 W 4 5 1014.8 - 0.0 - - - - - - -
26/05:00am 8.9 WNW 4 6 1014.7 - 0.0 - - - - - - -
26/04:30am 9.8 WNW 5 8 1014.5 - 0.0 - - - - - - -
26/04:00am 10.5 W 4 6 1014.1 - 0.0 - - - - - - -
26/03:30am 10.4 WSW 4 5 1014.0 - 0.0 - - - - - - -
26/03:00am 10.5 W 4 5 1013.9 - 0.0 - - - - - - -
26/02:30am 10.8 WNW 3 5 1013.8 - 0.0 - - - - - - -
26/02:00am 11.4 WNW 4 7 1013.9 - 0.0 - - - - - - -
26/01:30am 11.2 WNW 2 4 1013.9 - 0.0 - - - - - - -
26/01:00am 10.9 W 3 3 1014.0 - 0.0 - - - - - - -
26/12:30am 10.9 W 3 5 1013.8 - 0.0 - - - - - - -
26/12:00am 11.1 WSW 3 5 1013.8 - 0.0 - - - - - - -
 
Date/Time
EDT
Temp

°C
Wind Pressure Rain
since 9am
mm
Weather Cloud Vis
km
Sea
Height
m
Swell
Dir
 
Speed
knots
Gust
knots
hPa Trend Height
m
Period
s
Dir
25/11:30pm 11.7 WSW 3 5 1013.8 - 0.0 - - - - - - -
25/11:00pm 12.2 WSW 3 4 1013.7 - 0.0 - - - - - - -
25/10:30pm 12.8 W 3 5 1013.7 - 0.0 - - - - - - -
25/10:00pm 13.6 WNW 4 5 1013.4 - 0.0 - - - - - - -
25/09:30pm 13.9 W 4 6 1013.1 - 0.0 - - - - - - -
25/09:00pm 14.1 WSW 4 7 1012.6 - 0.0 - - - - - - -
25/08:30pm 15.3 WSW 8 12 1012.2 - 0.0 - - - - - - -
25/08:00pm 16.2 WSW 11 15 1012.2 - 0.0 - - - - - - -
25/07:30pm 17.5 WSW 12 19 1011.4 - 0.0 - - - - - - -
25/07:00pm 17.5 SW 14 21 1011.2 - 0.0 - - - - - - -
25/06:30pm 18.7 WSW 13 19 1010.7 - 0.0 - - - - - - -
25/06:00pm 18.1 WSW 11 15 1010.3 - 0.0 - - - - - - -
25/05:30pm 18.6 WSW 12 19 1010.3 - 0.0 - - - - - - -
25/05:00pm 18.3 WSW 16 23 1010.1 - 0.0 - - - - - - -
25/04:30pm 18.1 W 12 20 1010.0 - 0.0 - - - - - - -
25/04:14pm 18.0 WSW 16 27 1009.8 - 0.0 - - - - - - -
25/04:00pm 18.5 WSW 16 25 1009.6 - 0.0 - - - - - - -
25/03:30pm 19.4 WSW 17 25 1009.4 - 0.0 - - - - - - -
25/03:02pm 20.1 WSW 17 28 1009.2 - 0.0 - - - - - - -
25/03:00pm 20.4 WSW 17 25 1009.1 - 0.0 - - - - - - -
25/02:30pm 21.4 WSW 16 28 1008.9 - 0.0 - - - - - - -
25/02:05pm 21.3 W 16 27 1008.6 - 0.0 - - - - - - -
25/02:00pm 21.5 W 13 22 1008.5 - 0.0 - - - - - - -
25/01:30pm 20.6 W 13 22 1008.5 - 0.0 - - - - - - -
25/01:01pm 18.3 WSW 16 27 1008.8 - 0.0 - - - - - - -
25/01:00pm 18.5 WSW 14 25 1008.7 - 0.0 - - - - - - -
25/12:41pm 18.4 W 15 25 1008.5 - 0.0 - - - - - - -
25/12:30pm 19.8 W 16 22 1008.5 - 0.0 - - - - - - -
25/12:00pm 17.1 WSW 17 23 1008.7 - 0.0 - - - - - - -
25/11:30am 17.4 W 12 19 1008.4 - 0.0 - - - - - - -
25/11:00am 17.9 WNW 12 20 1008.2 - 0.0 - - - - - - -
25/10:30am 17.2 W 12 16 1008.2 - 0.0 - - - - - - -

Other Formats:

Comma delimited format used in spreadsheet applications
http://www.bom.gov.au/fwo/IDV60701/IDV60701.94857.axf

JavaScript Object Notation format (JSON) in row-major order
http://www.bom.gov.au/fwo/IDV60701/IDV60701.94857.json